Terminal Aerodrome Forecast
Issued by NWS

Home | Current Version | Previous Version | Text Only | Print | Product List | Glossary On
Versions: 1 2 3 4 5 6 7 8 9 10 11 12 13 14 15 16 17 18 19 20 21 22 23 24 25 26 27 28 29 30
000
FTAK31 PAFA 032340
TAFASC
TAF
PASC 032340Z 0400/0424 14008KT P6SM BKN100
     FM040800 26005KT 6SM BR BKN008 OVC080
     FM041000 28005KT 1SM BR OVC004
     FM041800 28010KT 3SM BR OVC012=

USA.gov is the U.S. government's official web portal to all federal, state and local government web resources and services.